Time;durP1;ratioP1;P1;durP2;ratioP2;P2;SDS_P1;SDS_P2;PMS_P1;PMS_P2;Temp;Humidity;BMP_temperature;BMP_pressure;BME280_temperature;BME280_humidity;BME280_pressure;Samples;Min_cycle;Max_cycle;Signal;HPM_P1;HPM_P2
2022/02/24 00:01:12;;;;;;;5.23;3.50;;;;;;;6.72;60.14;96023.47;5047106;28;20209;-79
2022/02/24 00:03:38;;;;;;;5.33;3.30;;;;;;;6.77;59.80;96021.28;5026896;28;20218;-78
2022/02/24 00:06:05;;;;;;;5.40;3.43;;;;;;;6.81;59.57;96023.41;5034464;28;20198;-79
2022/02/24 00:08:37;;;;;;;8.97;3.07;;;;;;;6.93;59.24;96031.69;5035108;28;20267;-78
2022/02/24 00:11:03;;;;;;;3.80;3.07;;;;;;;6.99;59.20;96022.66;5033896;28;20201;-78
2022/02/24 00:13:30;;;;;;;3.73;3.20;;;;;;;6.92;59.22;96030.91;5045448;28;20213;-78
2022/02/24 00:15:56;;;;;;;5.07;3.10;;;;;;;6.98;59.40;96028.72;5040732;28;20615;-79
2022/02/24 00:18:24;;;;;;;3.73;2.70;;;;;;;7.06;59.20;96027.06;5035732;28;20195;-79
2022/02/24 00:20:50;;;;;;;3.77;3.00;;;;;;;7.03;59.06;96031.66;5033519;28;20205;-79
2022/02/24 00:23:17;;;;;;;5.40;2.83;;;;;;;6.94;58.95;96029.00;5034792;28;20237;-79
2022/02/24 00:25:43;;;;;;;4.13;3.10;;;;;;;6.88;59.69;96032.13;5033642;28;20784;-79
2022/02/24 00:28:10;;;;;;;5.30;3.00;;;;;;;6.85;59.24;96024.75;5034444;28;20198;-78
2022/02/24 00:30:36;;;;;;;3.37;2.97;;;;;;;6.82;59.85;96024.22;5033744;28;20205;-79
2022/02/24 00:33:02;;;;;;;3.50;3.03;;;;;;;6.72;59.69;96033.72;5033592;28;20232;-78
2022/02/24 00:35:30;;;;;;;3.60;2.60;;;;;;;6.66;59.72;96024.84;5034876;28;20224;-78
2022/02/24 00:37:57;;;;;;;3.83;2.87;;;;;;;6.63;60.35;96022.56;5034098;28;20198;-79
2022/02/24 00:40:23;;;;;;;4.93;2.77;;;;;;;6.64;60.20;96018.25;5034260;28;20198;-79
2022/02/24 00:42:50;;;;;;;3.53;2.60;;;;;;;6.58;60.01;96024.72;5032914;28;20632;-79
2022/02/24 00:45:16;;;;;;;4.00;2.80;;;;;;;6.58;60.28;96028.09;5045921;28;20842;-78
2022/02/24 00:47:42;;;;;;;5.10;2.83;;;;;;;6.63;60.19;96031.97;5043215;28;20210;-77
2022/02/24 00:50:09;;;;;;;3.03;2.40;;;;;;;6.67;60.26;96028.19;5037441;28;20201;-79
2022/02/24 00:52:37;;;;;;;4.10;2.83;;;;;;;6.73;59.91;96033.56;5036825;28;20232;-79
2022/02/24 00:55:04;;;;;;;3.70;2.67;;;;;;;6.74;59.93;96034.34;5037321;28;20729;-78
2022/02/24 00:57:31;;;;;;;3.63;2.27;;;;;;;6.73;59.94;96030.19;5037968;28;20247;-79
2022/02/24 00:59:57;;;;;;;4.47;2.47;;;;;;;6.68;60.20;96020.38;5036639;28;20194;-78
2022/02/24 01:02:23;;;;;;;3.60;2.40;;;;;;;6.73;60.25;96018.22;5036916;28;20209;-78
2022/02/24 01:04:50;;;;;;;2.90;2.33;;;;;;;6.71;60.17;96022.66;5036968;28;20233;-79
2022/02/24 01:07:16;;;;;;;3.07;2.10;;;;;;;6.71;60.26;96022.66;5037470;28;20206;-79
2022/02/24 01:09:44;;;;;;;3.17;2.33;;;;;;;6.68;60.50;96012.72;5033734;28;20201;-78
2022/02/24 01:12:11;;;;;;;3.00;2.10;;;;;;;6.55;61.00;96010.47;5034130;28;20198;-79
2022/02/24 01:14:37;;;;;;;3.40;2.43;;;;;;;6.57;60.96;96013.69;5033591;28;20572;-79
2022/02/24 01:17:04;;;;;;;4.47;2.33;;;;;;;6.59;60.54;96005.88;5033943;28;20256;-79
2022/02/24 01:19:31;;;;;;;2.60;2.40;;;;;;;6.62;60.96;96010.72;5034504;28;20229;-79
2022/02/24 01:21:57;;;;;;;2.43;2.20;;;;;;;6.64;61.16;96010.56;5034206;28;20194;-78
2022/02/24 01:24:24;;;;;;;2.50;2.20;;;;;;;6.67;61.28;96010.28;5034190;28;20276;-79
2022/02/24 01:26:51;;;;;;;2.10;1.90;;;;;;;6.59;61.59;96004.13;5051190;28;20193;-78
2022/02/24 01:29:18;;;;;;;2.50;1.93;;;;;;;6.55;62.38;95997.66;5049473;28;20194;-79
2022/02/24 01:31:44;;;;;;;2.20;2.00;;;;;;;6.54;62.97;95996.06;5050570;28;20194;-79
2022/02/24 01:34:11;;;;;;;2.37;1.90;;;;;;;6.54;62.84;95996.06;5049598;28;20715;-79
2022/02/24 01:36:37;;;;;;;2.90;1.93;;;;;;;6.55;62.40;95994.31;5049697;28;20692;-78
2022/02/24 01:39:04;;;;;;;2.80;2.10;;;;;;;6.56;63.17;95983.94;5050411;28;20198;-79
2022/02/24 01:41:30;;;;;;;2.43;2.10;;;;;;;6.54;63.15;95985.81;5048677;28;20201;-79
2022/02/24 01:44:07;;;;;;;2.40;1.90;;;;;;;6.51;63.50;95986.13;5037408;28;20233;-78
2022/02/24 01:46:34;;;;;;;2.63;1.90;;;;;;;6.49;64.10;95984.66;5037069;28;20193;-78
2022/02/24 01:49:00;;;;;;;2.37;2.00;;;;;;;6.41;65.38;95981.97;5036695;28;20202;-78
2022/02/24 01:51:27;;;;;;;3.17;2.10;;;;;;;6.35;65.21;95973.13;5036819;28;20206;-79
2022/02/24 01:53:53;;;;;;;2.10;1.90;;;;;;;6.45;63.92;95979.00;5036160;28;20225;-79
2022/02/24 01:56:20;;;;;;;2.93;1.80;;;;;;;6.47;63.47;95969.44;5036652;28;20198;-78
2022/02/24 01:58:48;;;;;;;2.43;2.20;;;;;;;6.52;63.38;95974.16;5036038;28;20190;-78
2022/02/24 02:01:16;;;;;;;3.13;1.93;;;;;;;6.49;62.92;95971.88;5038170;28;20605;-79
2022/02/24 02:03:44;;;;;;;2.43;2.03;;;;;;;6.47;62.81;95969.44;5037441;28;20249;-79
2022/02/24 02:06:11;;;;;;;3.63;2.27;;;;;;;6.51;62.91;95970.78;5036275;28;20589;-79
2022/02/24 02:08:37;;;;;;;2.40;2.20;;;;;;;6.50;62.93;95964.06;5037644;28;20205;-79
2022/02/24 02:11:05;;;;;;;2.30;1.97;;;;;;;6.35;62.73;95955.22;5036016;28;20746;-79
2022/02/24 02:13:33;;;;;;;4.47;2.40;;;;;;;6.31;63.06;95958.22;5037181;28;20225;-79
2022/02/24 02:15:59;;;;;;;2.50;2.30;;;;;;;6.27;62.97;95959.44;5036690;28;20194;-79
2022/02/24 02:18:27;;;;;;;2.80;2.43;;;;;;;6.29;62.64;95948.13;5037888;28;20202;-79
2022/02/24 02:20:55;;;;;;;5.23;2.63;;;;;;;6.31;63.36;95950.53;5036400;28;20198;-79
2022/02/24 02:23:21;;;;;;;3.80;2.30;;;;;;;6.30;63.04;95952.28;5036551;28;20225;-79
2022/02/24 02:25:48;;;;;;;2.93;2.60;;;;;;;6.27;64.00;95946.66;5036182;28;20226;-79
2022/02/24 02:28:16;;;;;;;2.80;2.17;;;;;;;6.29;63.70;95948.13;5036696;28;20202;-79
2022/02/24 02:30:43;;;;;;;3.53;2.70;;;;;;;6.32;63.74;95942.72;5036447;28;20264;-79
2022/02/24 02:33:10;;;;;;;2.67;2.00;;;;;;;6.32;63.66;95939.38;5035724;28;20309;-79
2022/02/24 02:35:37;;;;;;;3.23;2.13;;;;;;;6.36;63.72;95940.69;5037074;28;20929;-78
2022/02/24 02:38:05;;;;;;;2.93;2.10;;;;;;;6.35;63.55;95934.75;5035996;28;20209;-79
2022/02/24 02:40:34;;;;;;;2.20;2.00;;;;;;;6.32;64.05;95940.19;5048550;28;20630;-78
2022/02/24 02:43:00;;;;;;;2.23;1.97;;;;;;;6.27;64.83;95944.91;5050003;28;20228;-79
2022/02/24 02:45:27;;;;;;;2.33;2.00;;;;;;;6.33;64.64;95938.44;5048488;28;20232;-78
2022/02/24 02:47:53;;;;;;;3.20;2.00;;;;;;;6.31;64.52;95935.19;5040167;28;20260;-79
2022/02/24 02:50:20;;;;;;;2.23;2.03;;;;;;;6.31;64.47;95933.44;5036643;28;20202;-79
2022/02/24 02:52:46;;;;;;;2.47;2.10;;;;;;;6.34;64.23;95927.25;5035706;28;20226;-79
2022/02/24 02:55:14;;;;;;;2.40;2.07;;;;;;;6.38;64.17;95934.47;5035597;28;20631;-79
2022/02/24 02:57:41;;;;;;;2.10;1.90;;;;;;;6.39;64.12;95930.97;5049445;28;20198;-79
2022/02/24 03:00:10;;;;;;;2.37;1.90;;;;;;;6.38;64.01;95931.13;5041586;28;20834;-78
2022/02/24 03:02:37;;;;;;;2.30;2.10;;;;;;;6.42;63.99;95929.88;5048139;28;20222;-78
2022/02/24 03:05:04;;;;;;;2.37;2.10;;;;;;;6.34;64.24;95917.81;5049736;28;20222;-78
2022/02/24 03:07:31;;;;;;;2.57;2.20;;;;;;;6.29;64.45;95922.56;5047764;28;20799;-79
2022/02/24 03:09:57;;;;;;;2.27;2.07;;;;;;;6.26;64.54;95915.16;5049490;28;20251;-79
2022/02/24 03:12:25;;;;;;;2.60;2.40;;;;;;;6.20;64.09;95916.53;5047579;28;20197;-78
2022/02/24 03:14:52;;;;;;;2.20;1.97;;;;;;;6.20;64.35;95913.97;5036158;28;20731;-79
2022/02/24 03:17:18;;;;;;;2.23;1.87;;;;;;;6.19;64.35;95909.78;5033322;28;20232;-79
2022/02/24 03:19:45;;;;;;;3.07;2.10;;;;;;;6.20;64.28;95905.50;5034334;28;20198;-79
2022/02/24 03:22:13;;;;;;;2.27;2.07;;;;;;;6.08;64.47;95902.31;5034988;28;20206;-78
2022/02/24 03:24:40;;;;;;;3.03;2.17;;;;;;;6.08;64.57;95906.63;5035824;28;20221;-79
2022/02/24 03:27:06;;;;;;;2.37;2.07;;;;;;;6.04;64.24;95905.28;5035085;28;20198;-78
2022/02/24 03:29:34;;;;;;;2.67;2.30;;;;;;;6.02;64.17;95896.97;5045120;28;20202;-78
2022/02/24 03:32:02;;;;;;;2.77;2.10;;;;;;;6.05;64.40;95902.59;5049512;28;20355;-79
2022/02/24 03:34:28;;;;;;;2.20;2.00;;;;;;;6.09;64.41;95903.94;5047023;28;20291;-78
2022/02/24 03:36:54;;;;;;;2.00;1.80;;;;;;;6.01;64.14;95895.34;5049765;28;20648;-78
2022/02/24 03:39:21;;;;;;;4.23;2.40;;;;;;;5.96;64.61;95895.00;5043333;28;20202;-79
2022/02/24 03:41:47;;;;;;;2.57;2.20;;;;;;;5.95;64.02;95896.72;5035448;28;20198;-78
2022/02/24 03:44:14;;;;;;;2.40;2.00;;;;;;;5.88;64.41;95882.88;5034298;28;20232;-79
2022/02/24 03:46:42;;;;;;;2.50;2.30;;;;;;;5.79;64.36;95887.06;5035715;28;20223;-79
2022/02/24 03:49:08;;;;;;;2.30;2.10;;;;;;;5.66;65.39;95885.75;5047761;28;20201;-78
2022/02/24 03:51:35;;;;;;;3.10;2.10;;;;;;;5.64;65.40;95883.34;5046953;28;20210;-78
2022/02/24 03:54:01;;;;;;;2.90;2.40;;;;;;;5.75;65.15;95883.19;5048701;28;20229;-78
2022/02/24 03:56:28;;;;;;;2.03;1.83;;;;;;;5.78;65.10;95882.09;5047102;28;20198;-79
2022/02/24 03:58:54;;;;;;;2.97;2.37;;;;;;;5.77;65.56;95880.50;5048864;28;20217;-78
2022/02/24 04:01:20;;;;;;;3.43;2.30;;;;;;;5.76;65.58;95878.88;5047856;28;20672;-79
2022/02/24 04:03:48;;;;;;;3.47;2.27;;;;;;;5.82;65.42;95873.19;5046631;28;21839;-79
2022/02/24 04:06:15;;;;;;;2.20;2.00;;;;;;;5.90;65.07;95865.69;5047902;28;20217;-78
2022/02/24 04:08:41;;;;;;;2.97;2.17;;;;;;;5.98;65.15;95872.63;5034934;28;20201;-79
2022/02/24 04:11:08;;;;;;;3.30;2.00;;;;;;;5.97;64.72;95871.81;5033250;28;20198;-79
2022/02/24 04:13:34;;;;;;;2.53;2.17;;;;;;;6.01;64.61;95864.69;5034571;28;20279;-78
2022/02/24 04:16:01;;;;;;;4.00;2.40;;;;;;;5.99;64.68;95861.47;5034125;28;20190;-79
2022/02/24 04:18:27;;;;;;;2.60;2.33;;;;;;;5.96;64.84;95852.34;5032247;28;20198;-79
2022/02/24 04:20:55;;;;;;;2.53;2.30;;;;;;;5.82;65.11;95853.56;5035247;28;20631;-78
2022/02/24 04:23:21;;;;;;;2.80;2.33;;;;;;;5.79;65.19;95840.25;5035349;28;20292;-79
2022/02/24 04:25:48;;;;;;;2.43;2.20;;;;;;;5.83;65.13;95842.41;5035513;28;20225;-78
2022/02/24 04:28:15;;;;;;;3.53;2.47;;;;;;;5.83;65.02;95839.84;5035541;28;20209;-78
2022/02/24 04:30:41;;;;;;;3.20;2.40;;;;;;;5.74;65.57;95842.44;5034500;28;20205;-79
2022/02/24 04:33:08;;;;;;;4.27;2.43;;;;;;;5.79;65.16;95843.63;5034795;28;20284;-78
2022/02/24 04:35:34;;;;;;;4.27;2.20;;;;;;;5.73;65.32;95838.28;5039390;28;20218;-79
2022/02/24 04:38:02;;;;;;;4.07;2.80;;;;;;;5.71;65.85;95843.53;5037568;28;20723;-79
2022/02/24 04:40:29;;;;;;;5.30;2.67;;;;;;;5.70;65.71;95843.66;5038832;28;20198;-79
2022/02/24 04:42:55;;;;;;;2.57;2.10;;;;;;;5.70;65.72;95836.81;5031123;28;20222;-79
2022/02/24 04:45:22;;;;;;;5.20;2.20;;;;;;;5.70;65.44;95836.81;5039942;28;20738;-79
2022/02/24 04:47:48;;;;;;;4.47;2.30;;;;;;;5.74;65.30;95833.03;5041381;28;20658;-78
2022/02/24 04:50:15;;;;;;;2.13;1.93;;;;;;;5.66;65.63;95827.81;5034936;28;20210;-78
2022/02/24 04:52:42;;;;;;;2.97;2.30;;;;;;;5.70;65.35;95834.25;5041354;28;20233;-78
2022/02/24 04:55:11;;;;;;;2.80;2.10;;;;;;;5.68;65.70;95823.38;5051475;28;20217;-79
2022/02/24 04:57:37;;;;;;;3.60;2.00;;;;;;;5.61;65.72;95829.97;5038686;28;20210;-79
2022/02/24 05:00:07;;;;;;;3.40;2.00;;;;;;;5.64;65.62;95816.13;5037260;28;20654;-78
2022/02/24 05:02:33;;;;;;;2.83;1.90;;;;;;;5.63;65.55;95817.06;5037550;28;20313;-78
2022/02/24 05:05:00;;;;;;;2.57;1.90;;;;;;;5.63;65.42;95815.31;5037660;28;20214;-78
2022/02/24 05:07:26;;;;;;;2.37;1.93;;;;;;;5.55;65.82;95816.03;5040204;28;20236;-79
2022/02/24 05:09:53;;;;;;;2.97;2.00;;;;;;;5.62;65.95;95813.72;5051367;28;20193;-78
2022/02/24 05:12:20;;;;;;;2.73;2.20;;;;;;;5.65;65.60;95813.44;5050817;28;20201;-79
2022/02/24 05:14:47;;;;;;;2.67;2.10;;;;;;;5.55;65.92;95808.38;5038405;28;20217;-78
2022/02/24 05:17:13;;;;;;;2.60;2.00;;;;;;;5.55;65.58;95805.81;5036659;28;20653;-79
2022/02/24 05:19:40;;;;;;;2.90;2.40;;;;;;;5.55;66.18;95805.00;5038078;28;20718;-78
2022/02/24 05:22:07;;;;;;;3.23;2.30;;;;;;;5.45;65.97;95801.69;5035946;28;20198;-78
2022/02/24 05:24:33;;;;;;;3.20;2.20;;;;;;;5.36;66.47;95794.88;5034256;28;20794;-78
2022/02/24 05:27:00;;;;;;;4.63;2.20;;;;;;;5.43;66.50;95794.16;5033919;28;20719;-79
2022/02/24 05:29:27;;;;;;;2.90;2.07;;;;;;;5.49;66.62;95801.25;5039075;28;20224;-79
2022/02/24 05:31:54;;;;;;;3.03;2.07;;;;;;;5.59;66.17;95797.84;5049842;28;20197;-78
2022/02/24 05:34:20;;;;;;;3.53;2.27;;;;;;;5.65;66.11;95795.56;5042856;28;20787;-79
2022/02/24 05:36:47;;;;;;;4.00;2.20;;;;;;;5.59;66.15;95785.88;5045429;28;20198;-78
2022/02/24 05:39:14;;;;;;;4.90;2.50;;;;;;;5.66;65.67;95781.84;5034264;28;20198;-78
2022/02/24 05:41:40;;;;;;;2.53;1.90;;;;;;;5.68;66.29;95790.16;5034027;28;20210;-78
2022/02/24 05:44:07;;;;;;;2.13;1.93;;;;;;;5.71;65.44;95786.53;5036696;28;20225;-79
2022/02/24 05:46:35;;;;;;;5.57;2.20;;;;;;;5.74;65.93;95789.63;5024029;28;20226;-78
2022/02/24 05:49:01;;;;;;;2.07;1.93;;;;;;;5.71;66.02;95784.78;5031843;28;20206;-79
2022/02/24 05:51:28;;;;;;;2.30;2.10;;;;;;;5.78;65.99;95780.69;5030898;28;20209;-78
2022/02/24 05:53:54;;;;;;;3.00;2.27;;;;;;;5.83;66.02;95775.97;5028299;28;21114;-79
2022/02/24 05:56:21;;;;;;;3.97;2.30;;;;;;;5.92;65.64;95788.88;5029868;28;20195;-79
2022/02/24 05:58:47;;;;;;;4.00;2.23;;;;;;;5.95;65.64;95783.50;5031749;28;20221;-79
2022/02/24 06:01:14;;;;;;;2.30;2.10;;;;;;;5.96;65.54;95791.03;5029101;28;20202;-78
2022/02/24 06:03:42;;;;;;;3.43;2.17;;;;;;;6.01;65.97;95791.38;5028230;28;20979;-79
2022/02/24 06:06:08;;;;;;;2.80;2.17;;;;;;;6.07;65.28;95782.34;5032802;28;20225;-79
2022/02/24 06:08:35;;;;;;;2.30;2.10;;;;;;;6.11;65.40;95789.56;5032328;28;20209;-79
2022/02/24 06:11:02;;;;;;;5.03;2.30;;;;;;;6.13;65.51;95787.69;5032709;28;20202;-78
2022/02/24 06:13:28;;;;;;;3.53;2.30;;;;;;;6.15;65.58;95785.00;5032289;28;20835;-78
2022/02/24 06:15:55;;;;;;;6.37;2.77;;;;;;;6.19;65.12;95783.72;5031259;28;20217;-78
2022/02/24 06:18:21;;;;;;;2.77;2.40;;;;;;;6.18;65.95;95779.56;5032160;28;20210;-79
2022/02/24 06:20:49;;;;;;;2.50;1.97;;;;;;;6.24;66.06;95779.00;5032049;28;20213;-79
2022/02/24 06:23:15;;;;;;;2.73;2.10;;;;;;;6.27;66.16;95775.34;5032160;28;20240;-78
2022/02/24 06:25:42;;;;;;;5.13;2.07;;;;;;;6.31;66.02;95774.91;5031711;28;20230;-79
2022/02/24 06:28:08;;;;;;;2.90;2.10;;;;;;;6.37;65.72;95773.50;5032503;28;20225;-78
2022/02/24 06:30:35;;;;;;;2.53;1.70;;;;;;;6.43;65.65;95770.38;5031491;28;20240;-80
2022/02/24 06:33:02;;;;;;;2.73;1.90;;;;;;;6.48;65.90;95774.13;5032110;28;20257;-79
2022/02/24 06:35:29;;;;;;;2.63;1.70;;;;;;;6.62;65.06;95769.41;5032291;28;20225;-79
2022/02/24 06:37:58;;;;;;;1.90;1.67;;;;;;;6.76;64.76;95767.13;5028403;28;20586;-79
2022/02/24 06:40:25;;;;;;;3.93;2.00;;;;;;;6.86;64.66;95767.88;5030892;28;20233;-79
2022/02/24 06:42:52;;;;;;;4.27;1.90;;;;;;;7.04;63.90;95772.94;5034122;28;20233;-79
2022/02/24 06:45:18;;;;;;;2.70;1.90;;;;;;;7.04;64.96;95772.94;5031392;28;20238;-78
2022/02/24 06:47:44;;;;;;;2.80;1.93;;;;;;;7.06;63.75;95768.47;5033184;28;20222;-78
2022/02/24 06:50:11;;;;;;;6.43;4.73;;;;;;;7.09;63.22;95770.75;5028666;28;20348;-78
2022/02/24 06:52:38;;;;;;;8.10;5.30;;;;;;;7.16;63.52;95768.38;5024273;28;20276;-79
2022/02/24 06:55:07;;;;;;;5.70;2.70;;;;;;;7.19;63.09;95757.84;5031160;28;20271;-78
2022/02/24 06:57:37;;;;;;;3.67;2.30;;;;;;;7.25;62.60;95770.84;5031854;28;20202;-79
2022/02/24 07:00:05;;;;;;;4.57;2.10;;;;;;;7.32;62.23;95759.97;5034930;28;20265;-80
2022/02/24 07:02:31;;;;;;;2.30;1.90;;;;;;;7.46;62.09;95759.44;5036897;28;22477;-79
2022/02/24 07:04:58;;;;;;;3.70;1.97;;;;;;;7.58;61.86;95761.56;5035714;28;20214;-78
2022/02/24 07:07:24;;;;;;;2.13;1.93;;;;;;;7.73;61.40;95763.53;5034626;28;20276;-80
2022/02/24 07:09:51;;;;;;;3.07;2.10;;;;;;;7.84;60.65;95753.03;5040269;28;20194;-79
2022/02/24 07:12:18;;;;;;;2.00;1.80;;;;;;;7.97;61.09;95750.81;5031993;28;20218;-79
2022/02/24 07:14:45;;;;;;;3.63;2.10;;;;;;;7.91;60.67;95747.09;5045876;28;20230;-79
2022/02/24 07:17:11;;;;;;;2.73;1.70;;;;;;;7.94;60.71;95753.69;5038637;28;20220;-79
2022/02/24 07:19:38;;;;;;;2.90;1.63;;;;;;;8.02;60.43;95740.91;5032720;28;20206;-78
2022/02/24 07:22:04;;;;;;;4.47;2.80;;;;;;;8.08;59.81;95740.25;5032416;28;20199;-79
2022/02/24 07:24:31;;;;;;;3.80;2.20;;;;;;;8.12;59.28;95736.41;5029808;28;20600;-79
2022/02/24 07:26:58;;;;;;;4.33;2.00;;;;;;;8.09;59.54;95741.03;5044484;28;20218;-80
2022/02/24 07:29:26;;;;;;;2.53;1.90;;;;;;;8.12;59.26;95738.97;5034175;28;20251;-79
2022/02/24 07:31:52;;;;;;;4.60;2.30;;;;;;;8.19;59.12;95734.84;5033348;28;20209;-79
2022/02/24 07:34:18;;;;;;;3.87;2.33;;;;;;;8.38;58.52;95725.28;5034065;28;20237;-79
2022/02/24 07:36:45;;;;;;;3.33;2.53;;;;;;;8.55;58.14;95725.13;5036943;28;20634;-82
2022/02/24 07:39:12;;;;;;;4.90;2.40;;;;;;;8.76;58.02;95722.06;5043242;28;20194;-79
2022/02/24 07:41:39;;;;;;;3.70;2.13;;;;;;;9.06;57.82;95720.56;5033952;28;20246;-79
2022/02/24 07:44:06;;;;;;;5.10;2.47;;;;;;;9.37;57.01;95725.00;5034074;28;20739;-79
2022/02/24 07:46:35;;;;;;;5.67;2.40;;;;;;;9.45;56.54;95724.97;5033413;28;20226;-78
2022/02/24 07:49:02;;;;;;;3.40;2.20;;;;;;;9.46;55.66;95722.22;5034713;28;20197;-78
2022/02/24 07:51:28;;;;;;;2.57;2.03;;;;;;;9.40;55.30;95720.34;5032215;28;20225;-79
2022/02/24 07:53:55;;;;;;;5.00;2.30;;;;;;;9.46;55.70;95726.56;5033034;28;20909;-79
2022/02/24 07:56:21;;;;;;;3.67;2.20;;;;;;;9.54;55.28;95722.22;5033704;28;20193;-79
2022/02/24 07:58:48;;;;;;;5.73;2.90;;;;;;;9.66;54.86;95722.63;5036590;28;20556;-80
2022/02/24 08:01:15;;;;;;;3.97;2.10;;;;;;;9.71;54.36;95728.09;5030146;28;20213;-80
2022/02/24 08:03:43;;;;;;;4.87;1.90;;;;;;;9.75;53.75;95718.28;5040519;28;20217;-79
2022/02/24 08:06:09;;;;;;;3.17;1.70;;;;;;;9.83;53.33;95719.03;5039383;28;20411;-80
2022/02/24 08:08:36;;;;;;;3.63;1.70;;;;;;;9.95;53.22;95720.25;5031518;28;20661;-80
2022/02/24 08:11:02;;;;;;;4.20;1.67;;;;;;;10.00;51.91;95718.00;5036499;28;20205;-80
2022/02/24 08:13:29;;;;;;;6.10;1.80;;;;;;;10.12;52.15;95709.88;5034076;28;20872;-79
2022/02/24 08:15:55;;;;;;;3.50;2.10;;;;;;;10.21;52.40;95711.44;5034240;28;20237;-80
2022/02/24 08:18:22;;;;;;;6.10;2.03;;;;;;;10.26;52.07;95701.44;5049543;28;20202;-80
2022/02/24 08:20:50;;;;;;;3.27;1.80;;;;;;;10.23;51.60;95707.72;5047766;28;20240;-79
2022/02/24 08:23:18;;;;;;;3.07;1.63;;;;;;;10.28;51.88;95707.22;5042945;28;20231;-80
2022/02/24 08:25:45;;;;;;;14.17;11.77;;;;;;;10.29;51.77;95701.09;5034116;28;20222;-80
2022/02/24 08:28:12;;;;;;;27.30;22.00;;;;;;;10.43;52.04;95702.13;5035345;28;20217;-79
2022/02/24 08:30:38;;;;;;;8.27;6.87;;;;;;;10.61;50.73;95700.03;5033882;28;20203;-80
2022/02/24 08:33:05;;;;;;;2.30;2.00;;;;;;;10.84;50.55;95700.00;5030886;28;20232;-79
2022/02/24 08:35:33;;;;;;;4.10;1.90;;;;;;;11.19;49.93;95706.28;5031148;28;20303;-79
2022/02/24 08:38:01;;;;;;;2.33;1.57;;;;;;;11.45;48.48;95692.94;5031491;28;20206;-80
2022/02/24 08:40:28;;;;;;;3.43;1.80;;;;;;;11.67;47.36;95700.56;5030960;28;20204;-79
2022/02/24 08:42:55;;;;;;;2.77;1.30;;;;;;;11.82;46.69;95700.56;5031114;28;20242;-80
2022/02/24 08:45:22;;;;;;;5.50;1.60;;;;;;;11.97;46.56;95691.00;5025249;28;20221;-80
2022/02/24 08:47:49;;;;;;;3.70;1.43;;;;;;;12.00;46.01;95682.91;5031088;28;20795;-79
2022/02/24 08:50:16;;;;;;;3.27;1.77;;;;;;;12.26;45.97;95684.16;5047520;28;20201;-80
2022/02/24 08:52:42;;;;;;;5.17;1.80;;;;;;;12.58;44.78;95675.91;5045428;28;20232;-79
2022/02/24 08:55:11;;;;;;;3.97;1.53;;;;;;;12.85;43.40;95668.38;5032295;28;20218;-80
2022/02/24 08:57:37;;;;;;;5.00;1.53;;;;;;;13.16;43.78;95663.63;5032550;28;20580;-80
2022/02/24 09:00:05;;;;;;;3.17;1.60;;;;;;;13.27;42.67;95668.28;5044480;28;20190;-80
2022/02/24 09:02:32;;;;;;;1.83;1.37;;;;;;;13.41;42.61;95664.75;5032510;28;21219;-79
2022/02/24 09:04:58;;;;;;;4.23;1.33;;;;;;;13.45;42.06;95667.78;5039830;28;20905;-78
2022/02/24 09:07:24;;;;;;;3.60;1.43;;;;;;;13.43;42.33;95665.38;5036365;28;20221;-78
2022/02/24 09:09:51;;;;;;;4.70;1.53;;;;;;;13.37;42.23;95660.97;5035816;28;20570;-79
2022/02/24 09:12:19;;;;;;;2.73;1.37;;;;;;;13.58;42.81;95661.84;5043307;28;20205;-79
2022/02/24 09:14:45;;;;;;;3.13;1.57;;;;;;;13.74;41.45;95656.31;5049376;28;20217;-78
2022/02/24 09:17:12;;;;;;;1.20;1.00;;;;;;;13.98;40.99;95655.00;5037822;28;20713;-79
2022/02/24 09:19:39;;;;;;;1.77;1.40;;;;;;;14.26;40.43;95649.66;5036424;28;20198;-78
2022/02/24 09:22:06;;;;;;;4.07;1.90;;;;;;;14.47;39.75;95646.94;5042599;28;20668;-78
2022/02/24 09:24:33;;;;;;;3.43;1.50;;;;;;;14.73;39.28;95646.94;5050043;28;20225;-79
2022/02/24 09:26:59;;;;;;;2.47;1.70;;;;;;;15.00;39.21;95636.56;5048029;28;20771;-79
2022/02/24 09:29:28;;;;;;;6.67;1.30;;;;;;;15.27;38.89;95634.66;5030367;28;20217;-79
2022/02/24 09:31:54;;;;;;;2.47;1.30;;;;;;;15.37;38.26;95632.47;5035406;28;20669;-79
2022/02/24 09:34:21;;;;;;;3.00;1.67;;;;;;;15.42;38.25;95633.41;5036250;28;20222;-79
2022/02/24 09:36:47;;;;;;;1.00;0.83;;;;;;;15.26;37.28;95633.88;5036124;28;20191;-78
2022/02/24 09:39:14;;;;;;;1.63;1.13;;;;;;;15.20;37.79;95630.28;5037160;28;20229;-78
2022/02/24 09:41:41;;;;;;;3.40;1.10;;;;;;;15.21;37.79;95631.88;5045212;28;20202;-79
2022/02/24 09:44:08;;;;;;;1.43;1.10;;;;;;;15.07;38.15;95632.13;5034661;28;20238;-79
2022/02/24 09:46:37;;;;;;;1.90;1.03;;;;;;;15.04;38.73;95625.53;5032442;28;20276;-80
2022/02/24 09:49:04;;;;;;;1.57;1.10;;;;;;;15.03;38.47;95623.16;5032689;28;20198;-80
2022/02/24 09:51:31;;;;;;;3.77;1.23;;;;;;;15.01;38.28;95620.75;5032458;28;20233;-80
2022/02/24 09:53:59;;;;;;;4.23;1.43;;;;;;;15.13;38.44;95616.56;5031671;28;20642;-79
2022/02/24 09:56:29;;;;;;;1.55;0.90;;;;;;;15.33;38.29;95619.09;5031276;28;20195;-78
2022/02/24 09:58:57;;;;;;;1.88;1.15;;;;;;;15.41;37.44;95611.06;5031145;28;20808;-78
2022/02/24 10:01:24;;;;;;;1.90;1.00;;;;;;;15.62;37.74;95614.41;5030999;28;20202;-79
2022/02/24 10:03:57;;;;;;;2.05;1.00;;;;;;;15.84;37.84;95610.50;5029352;28;20225;-79
2022/02/24 10:06:34;;;;;;;1.20;0.93;;;;;;;15.72;36.49;95610.38;5031958;28;20293;-78
2022/02/24 10:09:01;;;;;;;2.75;2.03;;;;;;;15.66;36.76;95605.22;5031505;28;20248;-78
2022/02/24 10:11:28;;;;;;;2.13;0.90;;;;;;;15.45;36.66;95595.88;5030977;28;20769;-78
2022/02/24 10:14:00;;;;;;;2.43;1.30;;;;;;;15.47;36.91;95596.47;5031669;28;20234;-79
2022/02/24 10:16:27;;;;;;;2.47;1.20;;;;;;;15.71;36.75;95600.19;5030249;28;20251;-79
2022/02/24 10:18:55;;;;;;;1.40;1.10;;;;;;;15.74;36.76;95592.00;5029947;28;20284;-79
2022/02/24 10:21:21;;;;;;;1.63;1.13;;;;;;;15.89;37.03;95589.91;5031791;28;20236;-79
2022/02/24 10:23:49;;;;;;;0.95;0.90;;;;;;;15.96;36.74;95590.69;5030976;28;20287;-79
2022/02/24 10:26:17;;;;;;;1.88;1.20;;;;;;;16.01;36.73;95579.63;5029553;28;20604;-79
2022/02/24 10:28:46;;;;;;;1.48;1.25;;;;;;;16.11;36.98;95575.59;5032930;28;20249;-80
2022/02/24 10:31:15;;;;;;;2.75;1.42;;;;;;;16.14;37.06;95577.75;5032198;28;20198;-79
2022/02/24 10:33:44;;;;;;;3.17;1.17;;;;;;;16.16;36.57;95574.97;5032229;28;20240;-79
2022/02/24 10:36:21;;;;;;;1.42;1.15;;;;;;;16.06;36.16;95577.22;5035822;28;20194;-78
2022/02/24 10:39:00;;;;;;;1.70;1.10;;;;;;;15.66;35.92;95569.66;5035803;28;20774;-80
2022/02/24 10:41:29;;;;;;;1.42;1.33;;;;;;;15.67;37.21;95553.09;5048333;28;20198;-78
2022/02/24 10:44:14;;;;;;;1.67;1.10;;;;;;;15.89;36.46;95558.75;5047551;28;20630;-79
2022/02/24 10:46:41;;;;;;;3.65;1.13;;;;;;;16.05;37.23;95555.63;5038125;28;20615;-79
2022/02/24 10:49:07;;;;;;;2.08;1.27;;;;;;;15.99;36.50;95559.06;5047904;28;20259;-79
2022/02/24 10:51:36;;;;;;;2.75;1.20;;;;;;;16.05;37.03;95563.44;5047843;28;20198;-80
2022/02/24 10:54:05;;;;;;;2.45;1.40;;;;;;;16.09;36.16;95551.63;5037282;28;20237;-79
2022/02/24 10:56:33;;;;;;;2.22;1.40;;;;;;;16.10;36.28;95534.25;5034480;28;20299;-79
2022/02/24 10:59:00;;;;;;;3.75;1.30;;;;;;;16.08;36.49;95528.47;5034794;28;20196;-79
2022/02/24 11:01:28;;;;;;;1.50;1.20;;;;;;;16.09;37.00;95538.63;5035180;28;20209;-79
2022/02/24 11:03:57;;;;;;;2.60;1.20;;;;;;;16.16;37.09;95534.16;5034070;28;20276;-79
2022/02/24 11:06:25;;;;;;;1.73;1.30;;;;;;;16.05;36.76;95532.25;5034814;28;20198;-78
2022/02/24 11:08:55;;;;;;;2.08;1.42;;;;;;;15.96;37.43;95523.16;5034583;28;20321;-79
2022/02/24 11:11:24;;;;;;;1.70;1.45;;;;;;;16.00;37.58;95511.31;5036293;28;20547;-79
2022/02/24 11:13:51;;;;;;;1.52;1.08;;;;;;;16.21;37.60;95515.34;5047951;28;20229;-78
2022/02/24 11:16:18;;;;;;;1.10;1.00;;;;;;;16.19;37.20;95510.38;5040196;28;20206;-78
2022/02/24 11:18:45;;;;;;;2.38;1.10;;;;;;;16.23;36.73;95508.13;5044905;28;20650;-78
2022/02/24 11:21:13;;;;;;;2.75;1.48;;;;;;;16.08;37.40;95503.28;5033447;28;20202;-78
2022/02/24 11:23:41;;;;;;;1.60;1.10;;;;;;;15.96;37.35;95496.41;5049991;28;20233;-78
2022/02/24 11:26:27;;;;;;;1.70;1.20;;;;;;;15.87;37.58;95488.84;5043186;28;20198;-79
2022/02/24 11:28:59;;;;;;;2.42;1.58;;;;;;;15.98;37.92;95478.78;5032134;28;20257;-80
2022/02/24 11:31:34;;;;;;;2.20;1.27;;;;;;;16.17;37.74;95473.41;5043153;28;20198;-78
2022/02/24 11:34:00;;;;;;;2.92;1.45;;;;;;;16.29;37.28;95464.94;5041078;28;20224;-79
2022/02/24 11:36:39;;;;;;;1.48;1.27;;;;;;;16.45;37.06;95474.75;5037104;28;20216;-79
2022/02/24 11:39:10;;;;;;;1.63;1.52;;;;;;;16.26;36.61;95476.53;5040840;28;20664;-80